sensor_id;sensor_type;location;lat;lon;timestamp;P1;durP1;ratioP1;P2;durP2;ratioP2
26594;SDS011;14238;49.496;8.154;2022-07-24T00:02:23;6.40;;;6.00;;
26594;SDS011;14238;49.496;8.154;2022-07-24T00:04:49;5.53;;;5.20;;
26594;SDS011;14238;49.496;8.154;2022-07-24T00:07:14;6.67;;;6.17;;
26594;SDS011;14238;49.496;8.154;2022-07-24T00:09:40;6.80;;;6.07;;
26594;SDS011;14238;49.496;8.154;2022-07-24T00:12:06;6.77;;;6.20;;
26594;SDS011;14238;49.496;8.154;2022-07-24T00:14:31;6.47;;;6.07;;
26594;SDS011;14238;49.496;8.154;2022-07-24T00:16:57;6.00;;;5.57;;
26594;SDS011;14238;49.496;8.154;2022-07-24T00:19:22;5.57;;;5.27;;
26594;SDS011;14238;49.496;8.154;2022-07-24T00:21:48;6.57;;;6.17;;
26594;SDS011;14238;49.496;8.154;2022-07-24T00:24:13;6.50;;;6.10;;
26594;SDS011;14238;49.496;8.154;2022-07-24T00:26:39;7.17;;;6.57;;
26594;SDS011;14238;49.496;8.154;2022-07-24T00:29:04;6.87;;;6.17;;
26594;SDS011;14238;49.496;8.154;2022-07-24T00:31:30;6.70;;;6.20;;
26594;SDS011;14238;49.496;8.154;2022-07-24T00:33:56;6.60;;;6.07;;
26594;SDS011;14238;49.496;8.154;2022-07-24T00:36:21;5.67;;;5.37;;
26594;SDS011;14238;49.496;8.154;2022-07-24T00:38:47;6.30;;;5.90;;
26594;SDS011;14238;49.496;8.154;2022-07-24T00:41:13;6.30;;;5.80;;
26594;SDS011;14238;49.496;8.154;2022-07-24T00:46:27;7.07;;;6.57;;
26594;SDS011;14238;49.496;8.154;2022-07-24T00:48:53;7.07;;;6.57;;
26594;SDS011;14238;49.496;8.154;2022-07-24T00:51:19;6.97;;;6.43;;
26594;SDS011;14238;49.496;8.154;2022-07-24T00:53:45;6.20;;;5.70;;
26594;SDS011;14238;49.496;8.154;2022-07-24T00:56:12;6.67;;;6.17;;
26594;SDS011;14238;49.496;8.154;2022-07-24T00:58:38;7.27;;;6.70;;
26594;SDS011;14238;49.496;8.154;2022-07-24T01:01:03;6.87;;;6.37;;
26594;SDS011;14238;49.496;8.154;2022-07-24T01:03:29;7.07;;;6.57;;
26594;SDS011;14238;49.496;8.154;2022-07-24T01:05:55;6.83;;;6.33;;
26594;SDS011;14238;49.496;8.154;2022-07-24T01:08:20;7.10;;;6.60;;
26594;SDS011;14238;49.496;8.154;2022-07-24T01:10:47;7.10;;;6.50;;
26594;SDS011;14238;49.496;8.154;2022-07-24T01:13:13;7.40;;;6.90;;
26594;SDS011;14238;49.496;8.154;2022-07-24T01:15:39;7.03;;;6.43;;
26594;SDS011;14238;49.496;8.154;2022-07-24T01:18:04;6.80;;;6.30;;
26594;SDS011;14238;49.496;8.154;2022-07-24T01:20:30;6.47;;;5.97;;
26594;SDS011;14238;49.496;8.154;2022-07-24T01:22:56;7.20;;;6.80;;
26594;SDS011;14238;49.496;8.154;2022-07-24T01:25:21;7.30;;;6.80;;
26594;SDS011;14238;49.496;8.154;2022-07-24T01:27:47;7.00;;;6.53;;
26594;SDS011;14238;49.496;8.154;2022-07-24T01:30:12;6.90;;;6.37;;
26594;SDS011;14238;49.496;8.154;2022-07-24T01:32:38;6.80;;;6.30;;
26594;SDS011;14238;49.496;8.154;2022-07-24T01:35:04;7.37;;;6.57;;
26594;SDS011;14238;49.496;8.154;2022-07-24T01:37:30;6.67;;;6.07;;
26594;SDS011;14238;49.496;8.154;2022-07-24T01:39:56;6.63;;;6.23;;
26594;SDS011;14238;49.496;8.154;2022-07-24T01:42:21;7.43;;;6.73;;
26594;SDS011;14238;49.496;8.154;2022-07-24T01:44:49;7.03;;;6.43;;
26594;SDS011;14238;49.496;8.154;2022-07-24T01:47:14;6.80;;;6.30;;
26594;SDS011;14238;49.496;8.154;2022-07-24T01:49:40;6.93;;;6.33;;
26594;SDS011;14238;49.496;8.154;2022-07-24T01:52:06;6.80;;;6.30;;
26594;SDS011;14238;49.496;8.154;2022-07-24T01:54:31;6.90;;;6.40;;
26594;SDS011;14238;49.496;8.154;2022-07-24T01:56:57;7.30;;;6.80;;
26594;SDS011;14238;49.496;8.154;2022-07-24T01:59:22;6.93;;;6.53;;
26594;SDS011;14238;49.496;8.154;2022-07-24T02:01:48;6.80;;;6.30;;
26594;SDS011;14238;49.496;8.154;2022-07-24T02:04:13;6.30;;;5.90;;
26594;SDS011;14238;49.496;8.154;2022-07-24T02:06:39;7.40;;;6.70;;
26594;SDS011;14238;49.496;8.154;2022-07-24T02:09:04;6.70;;;6.30;;
26594;SDS011;14238;49.496;8.154;2022-07-24T02:11:30;7.30;;;6.60;;
26594;SDS011;14238;49.496;8.154;2022-07-24T02:13:55;6.63;;;6.20;;
26594;SDS011;14238;49.496;8.154;2022-07-24T02:16:22;7.03;;;6.60;;
26594;SDS011;14238;49.496;8.154;2022-07-24T02:18:47;6.90;;;6.40;;
26594;SDS011;14238;49.496;8.154;2022-07-24T02:21:13;6.97;;;6.37;;
26594;SDS011;14238;49.496;8.154;2022-07-24T02:23:38;6.93;;;6.43;;
26594;SDS011;14238;49.496;8.154;2022-07-24T02:26:04;7.07;;;6.67;;
26594;SDS011;14238;49.496;8.154;2022-07-24T02:28:30;7.00;;;6.60;;
26594;SDS011;14238;49.496;8.154;2022-07-24T02:30:55;6.67;;;6.27;;
26594;SDS011;14238;49.496;8.154;2022-07-24T02:33:21;6.60;;;6.13;;
26594;SDS011;14238;49.496;8.154;2022-07-24T02:35:47;6.90;;;6.23;;
26594;SDS011;14238;49.496;8.154;2022-07-24T02:38:12;7.07;;;6.53;;
26594;SDS011;14238;49.496;8.154;2022-07-24T02:40:38;7.13;;;6.63;;
26594;SDS011;14238;49.496;8.154;2022-07-24T02:43:03;6.90;;;6.50;;
26594;SDS011;14238;49.496;8.154;2022-07-24T02:45:29;6.90;;;6.40;;
26594;SDS011;14238;49.496;8.154;2022-07-24T02:47:55;7.37;;;6.87;;
26594;SDS011;14238;49.496;8.154;2022-07-24T02:50:23;7.10;;;6.50;;
26594;SDS011;14238;49.496;8.154;2022-07-24T02:52:50;6.50;;;6.10;;
26594;SDS011;14238;49.496;8.154;2022-07-24T02:55:16;7.17;;;6.67;;
26594;SDS011;14238;49.496;8.154;2022-07-24T02:57:41;7.20;;;6.67;;
26594;SDS011;14238;49.496;8.154;2022-07-24T03:00:12;7.10;;;6.60;;
26594;SDS011;14238;49.496;8.154;2022-07-24T03:02:39;7.07;;;6.57;;
26594;SDS011;14238;49.496;8.154;2022-07-24T03:05:05;6.70;;;6.27;;
26594;SDS011;14238;49.496;8.154;2022-07-24T03:07:31;6.90;;;6.40;;
26594;SDS011;14238;49.496;8.154;2022-07-24T03:09:57;7.07;;;6.57;;
26594;SDS011;14238;49.496;8.154;2022-07-24T03:12:23;6.77;;;6.37;;
26594;SDS011;14238;49.496;8.154;2022-07-24T03:14:49;6.90;;;6.30;;
26594;SDS011;14238;49.496;8.154;2022-07-24T03:17:14;7.60;;;7.00;;
26594;SDS011;14238;49.496;8.154;2022-07-24T03:19:40;8.07;;;7.30;;
26594;SDS011;14238;49.496;8.154;2022-07-24T03:22:05;6.43;;;5.93;;
26594;SDS011;14238;49.496;8.154;2022-07-24T03:24:31;6.87;;;6.47;;
26594;SDS011;14238;49.496;8.154;2022-07-24T03:26:57;7.23;;;6.73;;
26594;SDS011;14238;49.496;8.154;2022-07-24T03:29:22;7.33;;;6.73;;
26594;SDS011;14238;49.496;8.154;2022-07-24T03:31:48;7.57;;;6.97;;
26594;SDS011;14238;49.496;8.154;2022-07-24T03:34:14;6.73;;;6.23;;
26594;SDS011;14238;49.496;8.154;2022-07-24T03:36:39;7.07;;;6.53;;
26594;SDS011;14238;49.496;8.154;2022-07-24T03:39:05;6.10;;;5.70;;
26594;SDS011;14238;49.496;8.154;2022-07-24T03:41:31;6.53;;;6.00;;
26594;SDS011;14238;49.496;8.154;2022-07-24T03:43:57;7.10;;;6.50;;
26594;SDS011;14238;49.496;8.154;2022-07-24T03:46:23;6.80;;;6.10;;
26594;SDS011;14238;49.496;8.154;2022-07-24T03:48:48;7.50;;;6.90;;
26594;SDS011;14238;49.496;8.154;2022-07-24T03:51:14;6.20;;;5.80;;
26594;SDS011;14238;49.496;8.154;2022-07-24T03:53:40;6.87;;;6.30;;
26594;SDS011;14238;49.496;8.154;2022-07-24T03:56:06;6.47;;;6.07;;
26594;SDS011;14238;49.496;8.154;2022-07-24T03:58:32;6.80;;;6.30;;
26594;SDS011;14238;49.496;8.154;2022-07-24T04:00:58;7.60;;;6.90;;
26594;SDS011;14238;49.496;8.154;2022-07-24T04:03:24;7.23;;;6.73;;
26594;SDS011;14238;49.496;8.154;2022-07-24T04:05:49;7.37;;;6.90;;
26594;SDS011;14238;49.496;8.154;2022-07-24T04:08:15;7.93;;;7.33;;
26594;SDS011;14238;49.496;8.154;2022-07-24T04:10:40;7.40;;;6.80;;
26594;SDS011;14238;49.496;8.154;2022-07-24T04:13:06;7.10;;;6.60;;
26594;SDS011;14238;49.496;8.154;2022-07-24T04:15:31;7.20;;;6.70;;
26594;SDS011;14238;49.496;8.154;2022-07-24T04:17:57;6.57;;;6.17;;
26594;SDS011;14238;49.496;8.154;2022-07-24T04:20:22;8.13;;;7.30;;
26594;SDS011;14238;49.496;8.154;2022-07-24T04:22:48;7.10;;;6.60;;
26594;SDS011;14238;49.496;8.154;2022-07-24T04:25:14;8.13;;;7.53;;
26594;SDS011;14238;49.496;8.154;2022-07-24T04:27:39;7.10;;;6.67;;
26594;SDS011;14238;49.496;8.154;2022-07-24T04:30:05;7.63;;;7.13;;
26594;SDS011;14238;49.496;8.154;2022-07-24T04:32:31;7.07;;;6.47;;
26594;SDS011;14238;49.496;8.154;2022-07-24T04:34:57;7.23;;;6.73;;
26594;SDS011;14238;49.496;8.154;2022-07-24T04:37:22;7.63;;;7.13;;
26594;SDS011;14238;49.496;8.154;2022-07-24T04:39:48;7.50;;;7.00;;
26594;SDS011;14238;49.496;8.154;2022-07-24T04:42:13;9.90;;;7.17;;
26594;SDS011;14238;49.496;8.154;2022-07-24T04:44:39;7.20;;;6.70;;
26594;SDS011;14238;49.496;8.154;2022-07-24T04:47:05;7.63;;;7.20;;
26594;SDS011;14238;49.496;8.154;2022-07-24T04:49:30;7.63;;;7.13;;
26594;SDS011;14238;49.496;8.154;2022-07-24T04:51:56;7.93;;;7.43;;
26594;SDS011;14238;49.496;8.154;2022-07-24T04:54:22;7.80;;;7.20;;
26594;SDS011;14238;49.496;8.154;2022-07-24T04:56:48;7.50;;;6.80;;
26594;SDS011;14238;49.496;8.154;2022-07-24T04:59:13;6.67;;;6.27;;
26594;SDS011;14238;49.496;8.154;2022-07-24T05:01:39;7.73;;;7.07;;
26594;SDS011;14238;49.496;8.154;2022-07-24T05:04:04;7.67;;;7.17;;
26594;SDS011;14238;49.496;8.154;2022-07-24T05:06:30;6.90;;;6.43;;
26594;SDS011;14238;49.496;8.154;2022-07-24T05:08:55;8.57;;;7.87;;
26594;SDS011;14238;49.496;8.154;2022-07-24T05:11:21;7.23;;;6.73;;
26594;SDS011;14238;49.496;8.154;2022-07-24T05:13:47;7.43;;;6.90;;
26594;SDS011;14238;49.496;8.154;2022-07-24T05:16:12;7.47;;;7.07;;
26594;SDS011;14238;49.496;8.154;2022-07-24T05:18:38;7.63;;;7.13;;
26594;SDS011;14238;49.496;8.154;2022-07-24T05:21:03;7.03;;;6.63;;
26594;SDS011;14238;49.496;8.154;2022-07-24T05:23:29;6.30;;;6.00;;
26594;SDS011;14238;49.496;8.154;2022-07-24T05:25:54;7.07;;;6.47;;
26594;SDS011;14238;49.496;8.154;2022-07-24T05:28:20;7.30;;;6.70;;
26594;SDS011;14238;49.496;8.154;2022-07-24T05:30:46;6.13;;;5.63;;
26594;SDS011;14238;49.496;8.154;2022-07-24T05:33:11;8.00;;;6.67;;
26594;SDS011;14238;49.496;8.154;2022-07-24T05:35:37;6.00;;;5.70;;
26594;SDS011;14238;49.496;8.154;2022-07-24T05:38:03;6.83;;;6.37;;
26594;SDS011;14238;49.496;8.154;2022-07-24T05:40:29;5.97;;;5.60;;
26594;SDS011;14238;49.496;8.154;2022-07-24T05:42:54;7.27;;;6.77;;
26594;SDS011;14238;49.496;8.154;2022-07-24T05:45:20;6.93;;;6.43;;
26594;SDS011;14238;49.496;8.154;2022-07-24T05:47:45;6.30;;;5.80;;
26594;SDS011;14238;49.496;8.154;2022-07-24T05:50:12;6.37;;;5.97;;
26594;SDS011;14238;49.496;8.154;2022-07-24T05:52:38;6.53;;;6.10;;
26594;SDS011;14238;49.496;8.154;2022-07-24T05:55:05;7.00;;;6.50;;
26594;SDS011;14238;49.496;8.154;2022-07-24T05:57:31;6.73;;;6.07;;
26594;SDS011;14238;49.496;8.154;2022-07-24T05:59:57;5.57;;;5.27;;
26594;SDS011;14238;49.496;8.154;2022-07-24T06:02:23;6.50;;;6.03;;
26594;SDS011;14238;49.496;8.154;2022-07-24T06:04:48;6.53;;;6.03;;
26594;SDS011;14238;49.496;8.154;2022-07-24T06:07:14;6.17;;;5.77;;
26594;SDS011;14238;49.496;8.154;2022-07-24T06:09:39;6.70;;;6.27;;
26594;SDS011;14238;49.496;8.154;2022-07-24T06:12:05;7.43;;;6.73;;
26594;SDS011;14238;49.496;8.154;2022-07-24T06:14:31;6.43;;;5.97;;
26594;SDS011;14238;49.496;8.154;2022-07-24T06:16:57;7.70;;;6.90;;
26594;SDS011;14238;49.496;8.154;2022-07-24T06:19:24;7.10;;;6.60;;
26594;SDS011;14238;49.496;8.154;2022-07-24T06:21:49;6.73;;;5.73;;
26594;SDS011;14238;49.496;8.154;2022-07-24T06:24:15;6.60;;;6.00;;
26594;SDS011;14238;49.496;8.154;2022-07-24T06:26:40;7.27;;;6.70;;
26594;SDS011;14238;49.496;8.154;2022-07-24T06:29:06;6.50;;;6.00;;
26594;SDS011;14238;49.496;8.154;2022-07-24T06:31:31;6.43;;;6.03;;
26594;SDS011;14238;49.496;8.154;2022-07-24T06:33:57;6.30;;;5.83;;
26594;SDS011;14238;49.496;8.154;2022-07-24T06:36:23;6.57;;;6.17;;
26594;SDS011;14238;49.496;8.154;2022-07-24T06:38:48;6.57;;;6.07;;
26594;SDS011;14238;49.496;8.154;2022-07-24T06:41:14;6.60;;;6.13;;
26594;SDS011;14238;49.496;8.154;2022-07-24T06:43:40;6.87;;;6.40;;
26594;SDS011;14238;49.496;8.154;2022-07-24T06:46:06;6.10;;;5.70;;
26594;SDS011;14238;49.496;8.154;2022-07-24T06:48:32;6.00;;;5.63;;
26594;SDS011;14238;49.496;8.154;2022-07-24T06:50:57;6.37;;;5.97;;
26594;SDS011;14238;49.496;8.154;2022-07-24T06:53:23;6.03;;;5.73;;
26594;SDS011;14238;49.496;8.154;2022-07-24T06:55:48;6.27;;;5.77;;
26594;SDS011;14238;49.496;8.154;2022-07-24T06:58:17;6.73;;;5.90;;
26594;SDS011;14238;49.496;8.154;2022-07-24T07:00:43;6.83;;;6.20;;
26594;SDS011;14238;49.496;8.154;2022-07-24T07:03:09;7.40;;;6.90;;
26594;SDS011;14238;49.496;8.154;2022-07-24T07:05:34;8.07;;;6.87;;
26594;SDS011;14238;49.496;8.154;2022-07-24T07:08:00;6.10;;;5.70;;
26594;SDS011;14238;49.496;8.154;2022-07-24T07:10:26;7.30;;;6.70;;
26594;SDS011;14238;49.496;8.154;2022-07-24T07:12:51;6.90;;;6.47;;
26594;SDS011;14238;49.496;8.154;2022-07-24T07:15:17;6.70;;;6.30;;
26594;SDS011;14238;49.496;8.154;2022-07-24T07:17:43;6.33;;;5.93;;
26594;SDS011;14238;49.496;8.154;2022-07-24T07:20:09;7.17;;;6.67;;
26594;SDS011;14238;49.496;8.154;2022-07-24T07:22:36;6.70;;;6.20;;
26594;SDS011;14238;49.496;8.154;2022-07-24T07:25:01;6.90;;;6.47;;
26594;SDS011;14238;49.496;8.154;2022-07-24T07:27:27;6.27;;;5.87;;
26594;SDS011;14238;49.496;8.154;2022-07-24T07:29:52;8.63;;;6.53;;
26594;SDS011;14238;49.496;8.154;2022-07-24T07:32:18;7.30;;;6.80;;
26594;SDS011;14238;49.496;8.154;2022-07-24T07:34:43;6.80;;;6.30;;
26594;SDS011;14238;49.496;8.154;2022-07-24T07:37:09;7.40;;;6.90;;
26594;SDS011;14238;49.496;8.154;2022-07-24T07:39:35;7.73;;;7.00;;
26594;SDS011;14238;49.496;8.154;2022-07-24T07:42:00;7.40;;;6.80;;
26594;SDS011;14238;49.496;8.154;2022-07-24T07:44:26;7.53;;;6.80;;
26594;SDS011;14238;49.496;8.154;2022-07-24T07:46:51;7.83;;;7.30;;
26594;SDS011;14238;49.496;8.154;2022-07-24T07:49:18;6.37;;;5.97;;
26594;SDS011;14238;49.496;8.154;2022-07-24T07:51:43;6.57;;;6.00;;
26594;SDS011;14238;49.496;8.154;2022-07-24T07:54:12;7.80;;;7.30;;
26594;SDS011;14238;49.496;8.154;2022-07-24T07:56:38;7.03;;;6.53;;
26594;SDS011;14238;49.496;8.154;2022-07-24T07:59:04;7.00;;;6.50;;
26594;SDS011;14238;49.496;8.154;2022-07-24T08:01:30;7.17;;;6.77;;
26594;SDS011;14238;49.496;8.154;2022-07-24T08:03:55;6.67;;;6.17;;
26594;SDS011;14238;49.496;8.154;2022-07-24T08:06:21;7.20;;;6.70;;
26594;SDS011;14238;49.496;8.154;2022-07-24T08:08:47;7.00;;;6.50;;
26594;SDS011;14238;49.496;8.154;2022-07-24T08:11:12;7.30;;;6.83;;
26594;SDS011;14238;49.496;8.154;2022-07-24T08:13:38;6.40;;;6.00;;
26594;SDS011;14238;49.496;8.154;2022-07-24T08:16:03;7.40;;;6.90;;
26594;SDS011;14238;49.496;8.154;2022-07-24T08:18:29;6.97;;;6.47;;
26594;SDS011;14238;49.496;8.154;2022-07-24T08:20:55;7.83;;;7.30;;
26594;SDS011;14238;49.496;8.154;2022-07-24T08:23:20;7.80;;;7.20;;
26594;SDS011;14238;49.496;8.154;2022-07-24T08:25:46;7.60;;;7.10;;
26594;SDS011;14238;49.496;8.154;2022-07-24T08:28:11;6.87;;;6.43;;
26594;SDS011;14238;49.496;8.154;2022-07-24T08:30:37;7.90;;;6.50;;
26594;SDS011;14238;49.496;8.154;2022-07-24T08:33:02;6.83;;;6.43;;
26594;SDS011;14238;49.496;8.154;2022-07-24T08:35:28;8.10;;;7.60;;
26594;SDS011;14238;49.496;8.154;2022-07-24T08:37:54;7.90;;;7.30;;
26594;SDS011;14238;49.496;8.154;2022-07-24T08:40:19;7.13;;;6.73;;
26594;SDS011;14238;49.496;8.154;2022-07-24T08:42:46;7.53;;;7.00;;
26594;SDS011;14238;49.496;8.154;2022-07-24T08:45:12;7.00;;;6.60;;
26594;SDS011;14238;49.496;8.154;2022-07-24T08:47:38;8.53;;;7.93;;
26594;SDS011;14238;49.496;8.154;2022-07-24T08:50:05;7.37;;;6.90;;
26594;SDS011;14238;49.496;8.154;2022-07-24T08:52:31;7.80;;;7.10;;
26594;SDS011;14238;49.496;8.154;2022-07-24T08:55:00;7.87;;;7.33;;
26594;SDS011;14238;49.496;8.154;2022-07-24T08:57:26;8.57;;;7.57;;
26594;SDS011;14238;49.496;8.154;2022-07-24T08:59:52;7.80;;;7.20;;
26594;SDS011;14238;49.496;8.154;2022-07-24T09:02:17;7.33;;;6.93;;
26594;SDS011;14238;49.496;8.154;2022-07-24T09:04:44;6.90;;;6.33;;
26594;SDS011;14238;49.496;8.154;2022-07-24T09:07:13;8.20;;;7.63;;
26594;SDS011;14238;49.496;8.154;2022-07-24T09:10:02;8.07;;;7.47;;
26594;SDS011;14238;49.496;8.154;2022-07-24T09:12:35;8.07;;;7.57;;
26594;SDS011;14238;49.496;8.154;2022-07-24T09:15:25;8.03;;;7.53;;
26594;SDS011;14238;49.496;8.154;2022-07-24T09:17:54;7.83;;;7.23;;
26594;SDS011;14238;49.496;8.154;2022-07-24T09:20:22;7.17;;;6.67;;
26594;SDS011;14238;49.496;8.154;2022-07-24T09:22:48;7.50;;;6.93;;
26594;SDS011;14238;49.496;8.154;2022-07-24T09:25:21;10.53;;;7.70;;
26594;SDS011;14238;49.496;8.154;2022-07-24T09:27:52;7.80;;;7.30;;
26594;SDS011;14238;49.496;8.154;2022-07-24T09:30:35;8.03;;;7.43;;
26594;SDS011;14238;49.496;8.154;2022-07-24T09:35:37;7.30;;;6.90;;
26594;SDS011;14238;49.496;8.154;2022-07-24T09:38:08;8.33;;;7.73;;
26594;SDS011;14238;49.496;8.154;2022-07-24T09:40:36;6.97;;;6.57;;
26594;SDS011;14238;49.496;8.154;2022-07-24T09:43:21;7.70;;;7.20;;
26594;SDS011;14238;49.496;8.154;2022-07-24T09:48:21;7.47;;;6.87;;
26594;SDS011;14238;49.496;8.154;2022-07-24T09:50:56;7.13;;;6.73;;
26594;SDS011;14238;49.496;8.154;2022-07-24T09:53:24;7.57;;;7.00;;
26594;SDS011;14238;49.496;8.154;2022-07-24T09:55:58;8.80;;;8.20;;
26594;SDS011;14238;49.496;8.154;2022-07-24T09:58:25;7.90;;;7.40;;
26594;SDS011;14238;49.496;8.154;2022-07-24T10:00:55;8.20;;;7.50;;
26594;SDS011;14238;49.496;8.154;2022-07-24T10:03:25;7.33;;;6.70;;
26594;SDS011;14238;49.496;8.154;2022-07-24T10:05:57;7.57;;;7.13;;
26594;SDS011;14238;49.496;8.154;2022-07-24T10:08:24;7.73;;;7.30;;
26594;SDS011;14238;49.496;8.154;2022-07-24T10:10:51;7.77;;;7.17;;
26594;SDS011;14238;49.496;8.154;2022-07-24T10:13:17;9.47;;;8.40;;
26594;SDS011;14238;49.496;8.154;2022-07-24T10:15:50;8.83;;;8.00;;
26594;SDS011;14238;49.496;8.154;2022-07-24T10:18:37;7.57;;;7.03;;
26594;SDS011;14238;49.496;8.154;2022-07-24T10:21:13;8.07;;;7.57;;
26594;SDS011;14238;49.496;8.154;2022-07-24T10:23:50;7.50;;;7.00;;
26594;SDS011;14238;49.496;8.154;2022-07-24T10:26:31;7.70;;;7.10;;
26594;SDS011;14238;49.496;8.154;2022-07-24T10:29:11;8.03;;;7.53;;
26594;SDS011;14238;49.496;8.154;2022-07-24T10:31:45;8.37;;;7.70;;
26594;SDS011;14238;49.496;8.154;2022-07-24T10:37:28;7.67;;;7.10;;
26594;SDS011;14238;49.496;8.154;2022-07-24T10:40:17;8.00;;;7.40;;
26594;SDS011;14238;49.496;8.154;2022-07-24T10:45:33;7.87;;;7.37;;
26594;SDS011;14238;49.496;8.154;2022-07-24T10:53:44;8.73;;;8.20;;
26594;SDS011;14238;49.496;8.154;2022-07-24T10:56:25;8.03;;;7.53;;
26594;SDS011;14238;49.496;8.154;2022-07-24T11:06:46;7.70;;;7.30;;
26594;SDS011;14238;49.496;8.154;2022-07-24T11:09:20;7.90;;;7.37;;
26594;SDS011;14238;49.496;8.154;2022-07-24T11:14:17;7.87;;;7.37;;
26594;SDS011;14238;49.496;8.154;2022-07-24T11:17:35;8.73;;;8.20;;
26594;SDS011;14238;49.496;8.154;2022-07-24T11:20:04;8.47;;;7.77;;
26594;SDS011;14238;49.496;8.154;2022-07-24T11:22:45;7.83;;;7.43;;
26594;SDS011;14238;49.496;8.154;2022-07-24T11:25:19;7.53;;;7.13;;
26594;SDS011;14238;49.496;8.154;2022-07-24T11:27:48;7.93;;;7.33;;
26594;SDS011;14238;49.496;8.154;2022-07-24T11:30:17;8.50;;;7.70;;
26594;SDS011;14238;49.496;8.154;2022-07-24T11:32:43;7.80;;;7.30;;
26594;SDS011;14238;49.496;8.154;2022-07-24T11:35:09;8.43;;;7.73;;
26594;SDS011;14238;49.496;8.154;2022-07-24T11:37:36;8.33;;;7.67;;
26594;SDS011;14238;49.496;8.154;2022-07-24T11:40:04;7.53;;;6.93;;
26594;SDS011;14238;49.496;8.154;2022-07-24T11:42:32;8.33;;;7.83;;
26594;SDS011;14238;49.496;8.154;2022-07-24T11:44:58;9.40;;;8.40;;
26594;SDS011;14238;49.496;8.154;2022-07-24T11:47:26;7.83;;;7.37;;
26594;SDS011;14238;49.496;8.154;2022-07-24T11:49:53;8.13;;;7.63;;
26594;SDS011;14238;49.496;8.154;2022-07-24T11:52:27;8.93;;;8.33;;
26594;SDS011;14238;49.496;8.154;2022-07-24T11:55:08;8.40;;;7.80;;
26594;SDS011;14238;49.496;8.154;2022-07-24T11:57:37;7.70;;;7.20;;
26594;SDS011;14238;49.496;8.154;2022-07-24T12:00:05;8.37;;;7.87;;
26594;SDS011;14238;49.496;8.154;2022-07-24T12:02:35;7.77;;;7.27;;
26594;SDS011;14238;49.496;8.154;2022-07-24T12:05:00;8.67;;;8.10;;
26594;SDS011;14238;49.496;8.154;2022-07-24T12:07:26;8.07;;;7.57;;
26594;SDS011;14238;49.496;8.154;2022-07-24T12:09:53;8.53;;;7.93;;
26594;SDS011;14238;49.496;8.154;2022-07-24T12:12:28;8.00;;;7.40;;
26594;SDS011;14238;49.496;8.154;2022-07-24T12:15:05;7.87;;;7.17;;
26594;SDS011;14238;49.496;8.154;2022-07-24T12:17:33;7.90;;;7.30;;
26594;SDS011;14238;49.496;8.154;2022-07-24T12:20:21;8.57;;;7.50;;
26594;SDS011;14238;49.496;8.154;2022-07-24T12:22:48;9.03;;;8.47;;
26594;SDS011;14238;49.496;8.154;2022-07-24T12:25:14;8.00;;;7.50;;
26594;SDS011;14238;49.496;8.154;2022-07-24T12:27:41;8.77;;;8.27;;
26594;SDS011;14238;49.496;8.154;2022-07-24T12:33:00;8.57;;;8.07;;
26594;SDS011;14238;49.496;8.154;2022-07-24T12:35:29;9.20;;;8.47;;
26594;SDS011;14238;49.496;8.154;2022-07-24T12:37:58;8.70;;;8.10;;
26594;SDS011;14238;49.496;8.154;2022-07-24T12:40:35;8.63;;;8.10;;
26594;SDS011;14238;49.496;8.154;2022-07-24T12:43:08;8.57;;;7.93;;
26594;SDS011;14238;49.496;8.154;2022-07-24T12:45:35;8.77;;;8.27;;
26594;SDS011;14238;49.496;8.154;2022-07-24T12:48:21;9.00;;;8.20;;
26594;SDS011;14238;49.496;8.154;2022-07-24T12:53:36;7.77;;;7.37;;
26594;SDS011;14238;49.496;8.154;2022-07-24T12:56:14;7.70;;;7.30;;
26594;SDS011;14238;49.496;8.154;2022-07-24T12:58:51;10.87;;;10.00;;
26594;SDS011;14238;49.496;8.154;2022-07-24T13:01:21;7.80;;;7.30;;
26594;SDS011;14238;49.496;8.154;2022-07-24T13:03:58;8.40;;;7.90;;
26594;SDS011;14238;49.496;8.154;2022-07-24T13:06:35;8.80;;;8.20;;
26594;SDS011;14238;49.496;8.154;2022-07-24T13:09:01;8.37;;;7.87;;
26594;SDS011;14238;49.496;8.154;2022-07-24T13:11:28;8.50;;;7.90;;
26594;SDS011;14238;49.496;8.154;2022-07-24T13:13:54;8.67;;;8.20;;
26594;SDS011;14238;49.496;8.154;2022-07-24T13:16:19;8.17;;;7.67;;
26594;SDS011;14238;49.496;8.154;2022-07-24T13:18:45;8.33;;;7.83;;
26594;SDS011;14238;49.496;8.154;2022-07-24T13:21:11;9.00;;;8.40;;
26594;SDS011;14238;49.496;8.154;2022-07-24T13:23:36;8.03;;;7.33;;
26594;SDS011;14238;49.496;8.154;2022-07-24T13:26:02;7.40;;;7.00;;
26594;SDS011;14238;49.496;8.154;2022-07-24T13:28:27;9.00;;;8.30;;
26594;SDS011;14238;49.496;8.154;2022-07-24T13:30:53;8.90;;;8.30;;
26594;SDS011;14238;49.496;8.154;2022-07-24T13:33:18;7.80;;;7.20;;
26594;SDS011;14238;49.496;8.154;2022-07-24T13:35:44;7.90;;;7.40;;
26594;SDS011;14238;49.496;8.154;2022-07-24T13:38:09;6.93;;;6.50;;
26594;SDS011;14238;49.496;8.154;2022-07-24T13:40:35;8.10;;;7.60;;
26594;SDS011;14238;49.496;8.154;2022-07-24T13:43:00;7.80;;;7.30;;
26594;SDS011;14238;49.496;8.154;2022-07-24T13:45:26;8.00;;;7.40;;
26594;SDS011;14238;49.496;8.154;2022-07-24T13:47:51;6.97;;;6.57;;
26594;SDS011;14238;49.496;8.154;2022-07-24T13:50:17;8.17;;;7.67;;
26594;SDS011;14238;49.496;8.154;2022-07-24T13:52:42;7.50;;;7.10;;
26594;SDS011;14238;49.496;8.154;2022-07-24T13:55:08;7.60;;;7.10;;
26594;SDS011;14238;49.496;8.154;2022-07-24T13:57:34;7.70;;;7.20;;
26594;SDS011;14238;49.496;8.154;2022-07-24T13:59:59;7.50;;;7.10;;
26594;SDS011;14238;49.496;8.154;2022-07-24T14:02:25;8.00;;;7.50;;
26594;SDS011;14238;49.496;8.154;2022-07-24T14:04:50;8.33;;;7.70;;
26594;SDS011;14238;49.496;8.154;2022-07-24T14:07:16;7.40;;;7.00;;
26594;SDS011;14238;49.496;8.154;2022-07-24T14:09:41;7.77;;;7.17;;
26594;SDS011;14238;49.496;8.154;2022-07-24T14:12:07;7.83;;;7.23;;
26594;SDS011;14238;49.496;8.154;2022-07-24T14:14:33;6.90;;;6.50;;
26594;SDS011;14238;49.496;8.154;2022-07-24T14:16:58;8.03;;;7.53;;
26594;SDS011;14238;49.496;8.154;2022-07-24T14:19:24;7.77;;;7.27;;
26594;SDS011;14238;49.496;8.154;2022-07-24T14:21:50;7.13;;;6.63;;
26594;SDS011;14238;49.496;8.154;2022-07-24T14:24:16;7.00;;;6.60;;
26594;SDS011;14238;49.496;8.154;2022-07-24T14:26:43;7.90;;;7.50;;
26594;SDS011;14238;49.496;8.154;2022-07-24T14:29:09;7.37;;;6.97;;
26594;SDS011;14238;49.496;8.154;2022-07-24T14:31:35;7.40;;;7.00;;
26594;SDS011;14238;49.496;8.154;2022-07-24T14:34:00;7.20;;;6.70;;
26594;SDS011;14238;49.496;8.154;2022-07-24T14:36:26;7.50;;;7.00;;
26594;SDS011;14238;49.496;8.154;2022-07-24T14:38:52;6.90;;;6.50;;
26594;SDS011;14238;49.496;8.154;2022-07-24T14:41:17;7.43;;;6.93;;
26594;SDS011;14238;49.496;8.154;2022-07-24T14:43:43;7.63;;;7.03;;
26594;SDS011;14238;49.496;8.154;2022-07-24T14:46:09;7.97;;;7.23;;
26594;SDS011;14238;49.496;8.154;2022-07-24T14:48:34;7.30;;;6.90;;
26594;SDS011;14238;49.496;8.154;2022-07-24T14:51:00;8.50;;;6.97;;
26594;SDS011;14238;49.496;8.154;2022-07-24T14:53:25;6.60;;;6.30;;
26594;SDS011;14238;49.496;8.154;2022-07-24T14:55:51;7.13;;;6.67;;
26594;SDS011;14238;49.496;8.154;2022-07-24T14:58:16;7.03;;;6.50;;
26594;SDS011;14238;49.496;8.154;2022-07-24T15:00:42;6.67;;;6.30;;
26594;SDS011;14238;49.496;8.154;2022-07-24T15:03:07;6.80;;;6.40;;
26594;SDS011;14238;49.496;8.154;2022-07-24T15:05:33;7.30;;;6.90;;
26594;SDS011;14238;49.496;8.154;2022-07-24T15:07:58;8.20;;;7.70;;
26594;SDS011;14238;49.496;8.154;2022-07-24T15:10:24;6.77;;;6.37;;
26594;SDS011;14238;49.496;8.154;2022-07-24T15:12:49;7.33;;;6.80;;
26594;SDS011;14238;49.496;8.154;2022-07-24T15:15:15;7.80;;;7.30;;
26594;SDS011;14238;49.496;8.154;2022-07-24T15:17:41;8.10;;;7.40;;
26594;SDS011;14238;49.496;8.154;2022-07-24T15:20:06;6.87;;;6.47;;
26594;SDS011;14238;49.496;8.154;2022-07-24T15:22:32;7.10;;;6.70;;
26594;SDS011;14238;49.496;8.154;2022-07-24T15:24:57;6.67;;;6.27;;